sensor_id;sensor_type;location;lat;lon;timestamp;P1;durP1;ratioP1;P2;durP2;ratioP2
50853;SDS011;44154;45.506;-122.806;2022-11-20T00:00:13;1.02;;;0.60;;
50853;SDS011;44154;45.506;-122.806;2022-11-20T00:02:41;1.35;;;0.90;;
50853;SDS011;44154;45.506;-122.806;2022-11-20T00:05:07;1.23;;;0.85;;
50853;SDS011;44154;45.506;-122.806;2022-11-20T00:07:34;1.40;;;0.70;;
50853;SDS011;44154;45.506;-122.806;2022-11-20T00:10:00;0.95;;;0.70;;
50853;SDS011;44154;45.506;-122.806;2022-11-20T00:12:26;0.98;;;0.55;;
50853;SDS011;44154;45.506;-122.806;2022-11-20T00:14:53;1.00;;;0.73;;
50853;SDS011;44154;45.506;-122.806;2022-11-20T00:17:19;1.70;;;1.00;;
50853;SDS011;44154;45.506;-122.806;2022-11-20T00:19:45;1.20;;;0.90;;
50853;SDS011;44154;45.506;-122.806;2022-11-20T00:22:11;1.20;;;0.77;;
50853;SDS011;44154;45.506;-122.806;2022-11-20T00:24:37;1.00;;;0.70;;
50853;SDS011;44154;45.506;-122.806;2022-11-20T00:27:03;1.05;;;0.73;;
50853;SDS011;44154;45.506;-122.806;2022-11-20T00:29:30;1.45;;;0.80;;
50853;SDS011;44154;45.506;-122.806;2022-11-20T00:31:56;1.25;;;0.70;;
50853;SDS011;44154;45.506;-122.806;2022-11-20T00:34:22;1.60;;;0.82;;
50853;SDS011;44154;45.506;-122.806;2022-11-20T00:36:48;1.02;;;0.75;;
50853;SDS011;44154;45.506;-122.806;2022-11-20T00:39:14;1.00;;;0.75;;
50853;SDS011;44154;45.506;-122.806;2022-11-20T00:41:40;1.48;;;0.82;;
50853;SDS011;44154;45.506;-122.806;2022-11-20T00:44:07;1.00;;;0.73;;
50853;SDS011;44154;45.506;-122.806;2022-11-20T00:46:33;1.42;;;0.80;;
50853;SDS011;44154;45.506;-122.806;2022-11-20T00:48:59;1.33;;;0.80;;
50853;SDS011;44154;45.506;-122.806;2022-11-20T00:51:26;1.38;;;0.90;;
50853;SDS011;44154;45.506;-122.806;2022-11-20T00:53:56;1.10;;;0.77;;
50853;SDS011;44154;45.506;-122.806;2022-11-20T00:56:25;1.27;;;0.80;;
50853;SDS011;44154;45.506;-122.806;2022-11-20T00:58:51;1.17;;;0.80;;
50853;SDS011;44154;45.506;-122.806;2022-11-20T01:01:19;1.13;;;0.73;;
50853;SDS011;44154;45.506;-122.806;2022-11-20T01:03:50;1.07;;;0.73;;
50853;SDS011;44154;45.506;-122.806;2022-11-20T01:08:51;1.58;;;0.75;;
50853;SDS011;44154;45.506;-122.806;2022-11-20T01:11:23;1.10;;;0.80;;
50853;SDS011;44154;45.506;-122.806;2022-11-20T01:13:51;1.05;;;0.63;;
50853;SDS011;44154;45.506;-122.806;2022-11-20T01:16:19;1.10;;;0.85;;
50853;SDS011;44154;45.506;-122.806;2022-11-20T01:18:52;1.02;;;0.73;;
50853;SDS011;44154;45.506;-122.806;2022-11-20T01:21:20;0.80;;;0.65;;
50853;SDS011;44154;45.506;-122.806;2022-11-20T01:23:58;1.42;;;0.80;;
50853;SDS011;44154;45.506;-122.806;2022-11-20T01:26:26;1.05;;;0.70;;
50853;SDS011;44154;45.506;-122.806;2022-11-20T01:28:55;0.98;;;0.70;;
50853;SDS011;44154;45.506;-122.806;2022-11-20T01:31:23;1.95;;;0.90;;
50853;SDS011;44154;45.506;-122.806;2022-11-20T01:33:52;0.98;;;0.68;;
50853;SDS011;44154;45.506;-122.806;2022-11-20T01:36:21;0.85;;;0.70;;
50853;SDS011;44154;45.506;-122.806;2022-11-20T01:38:52;1.00;;;0.70;;
50853;SDS011;44154;45.506;-122.806;2022-11-20T01:41:19;1.17;;;0.73;;
50853;SDS011;44154;45.506;-122.806;2022-11-20T01:44:05;1.50;;;0.95;;
50853;SDS011;44154;45.506;-122.806;2022-11-20T01:46:38;1.38;;;1.00;;
50853;SDS011;44154;45.506;-122.806;2022-11-20T01:49:12;1.10;;;0.80;;
50853;SDS011;44154;45.506;-122.806;2022-11-20T01:52:04;1.02;;;0.82;;
50853;SDS011;44154;45.506;-122.806;2022-11-20T01:54:54;1.05;;;0.70;;
50853;SDS011;44154;45.506;-122.806;2022-11-20T01:57:27;1.27;;;0.80;;
50853;SDS011;44154;45.506;-122.806;2022-11-20T02:00:00;1.48;;;0.85;;
50853;SDS011;44154;45.506;-122.806;2022-11-20T02:02:39;1.40;;;0.90;;
50853;SDS011;44154;45.506;-122.806;2022-11-20T02:08:07;1.60;;;1.08;;
50853;SDS011;44154;45.506;-122.806;2022-11-20T02:10:33;1.33;;;0.90;;
50853;SDS011;44154;45.506;-122.806;2022-11-20T02:13:00;1.60;;;1.00;;
50853;SDS011;44154;45.506;-122.806;2022-11-20T02:15:45;2.53;;;0.90;;
50853;SDS011;44154;45.506;-122.806;2022-11-20T02:18:13;1.05;;;0.88;;
50853;SDS011;44154;45.506;-122.806;2022-11-20T02:20:43;1.33;;;0.90;;
50853;SDS011;44154;45.506;-122.806;2022-11-20T02:23:16;1.30;;;0.77;;
50853;SDS011;44154;45.506;-122.806;2022-11-20T02:25:43;1.13;;;0.82;;
50853;SDS011;44154;45.506;-122.806;2022-11-20T02:28:12;0.95;;;0.70;;
50853;SDS011;44154;45.506;-122.806;2022-11-20T02:30:39;1.42;;;0.90;;
50853;SDS011;44154;45.506;-122.806;2022-11-20T02:33:05;1.25;;;0.93;;
50853;SDS011;44154;45.506;-122.806;2022-11-20T02:37:59;1.40;;;0.85;;
50853;SDS011;44154;45.506;-122.806;2022-11-20T02:40:28;1.90;;;0.90;;
50853;SDS011;44154;45.506;-122.806;2022-11-20T02:42:55;1.30;;;0.90;;
50853;SDS011;44154;45.506;-122.806;2022-11-20T02:45:22;0.90;;;0.60;;
50853;SDS011;44154;45.506;-122.806;2022-11-20T02:47:49;1.10;;;0.90;;
50853;SDS011;44154;45.506;-122.806;2022-11-20T02:50:16;1.98;;;0.82;;
50853;SDS011;44154;45.506;-122.806;2022-11-20T02:52:42;0.85;;;0.60;;
50853;SDS011;44154;45.506;-122.806;2022-11-20T02:55:08;1.15;;;0.82;;
50853;SDS011;44154;45.506;-122.806;2022-11-20T02:57:35;1.50;;;1.00;;
50853;SDS011;44154;45.506;-122.806;2022-11-20T03:00:02;1.67;;;0.93;;
50853;SDS011;44154;45.506;-122.806;2022-11-20T03:02:30;1.10;;;0.80;;
50853;SDS011;44154;45.506;-122.806;2022-11-20T03:04:56;1.38;;;0.82;;
50853;SDS011;44154;45.506;-122.806;2022-11-20T03:07:23;2.78;;;1.25;;
50853;SDS011;44154;45.506;-122.806;2022-11-20T03:09:49;1.65;;;0.90;;
50853;SDS011;44154;45.506;-122.806;2022-11-20T03:12:15;1.40;;;0.90;;
50853;SDS011;44154;45.506;-122.806;2022-11-20T03:14:42;1.35;;;0.95;;
50853;SDS011;44154;45.506;-122.806;2022-11-20T03:17:08;0.95;;;0.73;;
50853;SDS011;44154;45.506;-122.806;2022-11-20T03:19:34;1.25;;;0.80;;
50853;SDS011;44154;45.506;-122.806;2022-11-20T03:22:00;1.27;;;0.82;;
50853;SDS011;44154;45.506;-122.806;2022-11-20T03:24:27;1.35;;;0.90;;
50853;SDS011;44154;45.506;-122.806;2022-11-20T03:26:53;1.20;;;0.80;;
50853;SDS011;44154;45.506;-122.806;2022-11-20T03:29:19;0.95;;;0.70;;
50853;SDS011;44154;45.506;-122.806;2022-11-20T03:31:45;0.98;;;0.77;;
50853;SDS011;44154;45.506;-122.806;2022-11-20T03:34:12;1.58;;;0.85;;
50853;SDS011;44154;45.506;-122.806;2022-11-20T03:36:41;0.90;;;0.70;;
50853;SDS011;44154;45.506;-122.806;2022-11-20T03:39:08;0.98;;;0.70;;
50853;SDS011;44154;45.506;-122.806;2022-11-20T03:41:39;1.10;;;0.80;;
50853;SDS011;44154;45.506;-122.806;2022-11-20T03:44:08;1.10;;;0.80;;
50853;SDS011;44154;45.506;-122.806;2022-11-20T03:46:36;0.98;;;0.70;;
50853;SDS011;44154;45.506;-122.806;2022-11-20T03:49:02;1.63;;;1.00;;
50853;SDS011;44154;45.506;-122.806;2022-11-20T03:51:30;1.27;;;0.80;;
50853;SDS011;44154;45.506;-122.806;2022-11-20T03:54:00;1.05;;;0.70;;
50853;SDS011;44154;45.506;-122.806;2022-11-20T03:56:31;1.48;;;1.05;;
50853;SDS011;44154;45.506;-122.806;2022-11-20T03:58:59;1.20;;;0.80;;
50853;SDS011;44154;45.506;-122.806;2022-11-20T04:01:27;1.23;;;0.80;;
50853;SDS011;44154;45.506;-122.806;2022-11-20T04:03:55;1.00;;;0.90;;
50853;SDS011;44154;45.506;-122.806;2022-11-20T04:06:55;1.20;;;0.90;;
50853;SDS011;44154;45.506;-122.806;2022-11-20T04:09:14;1.17;;;0.80;;
50853;SDS011;44154;45.506;-122.806;2022-11-20T04:11:41;1.10;;;0.70;;
50853;SDS011;44154;45.506;-122.806;2022-11-20T04:14:11;1.48;;;0.93;;
50853;SDS011;44154;45.506;-122.806;2022-11-20T04:16:39;1.13;;;0.65;;
50853;SDS011;44154;45.506;-122.806;2022-11-20T04:19:06;0.85;;;0.70;;
50853;SDS011;44154;45.506;-122.806;2022-11-20T04:21:36;1.13;;;0.80;;
50853;SDS011;44154;45.506;-122.806;2022-11-20T04:24:03;1.27;;;0.88;;
50853;SDS011;44154;45.506;-122.806;2022-11-20T04:26:30;1.23;;;0.90;;
50853;SDS011;44154;45.506;-122.806;2022-11-20T04:28:57;1.00;;;0.80;;
50853;SDS011;44154;45.506;-122.806;2022-11-20T04:31:25;1.23;;;1.00;;
50853;SDS011;44154;45.506;-122.806;2022-11-20T04:33:53;1.13;;;0.90;;
50853;SDS011;44154;45.506;-122.806;2022-11-20T04:36:25;1.05;;;0.80;;
50853;SDS011;44154;45.506;-122.806;2022-11-20T04:38:54;1.10;;;0.80;;
50853;SDS011;44154;45.506;-122.806;2022-11-20T04:41:23;1.10;;;0.80;;
50853;SDS011;44154;45.506;-122.806;2022-11-20T04:43:58;0.93;;;0.70;;
50853;SDS011;44154;45.506;-122.806;2022-11-20T04:46:28;1.10;;;0.90;;
50853;SDS011;44154;45.506;-122.806;2022-11-20T04:48:56;1.50;;;0.80;;
50853;SDS011;44154;45.506;-122.806;2022-11-20T04:51:22;1.33;;;1.05;;
50853;SDS011;44154;45.506;-122.806;2022-11-20T04:53:49;1.02;;;0.77;;
50853;SDS011;44154;45.506;-122.806;2022-11-20T04:56:15;1.55;;;1.10;;
50853;SDS011;44154;45.506;-122.806;2022-11-20T04:58:42;1.20;;;0.80;;
50853;SDS011;44154;45.506;-122.806;2022-11-20T05:03:39;1.35;;;0.93;;
50853;SDS011;44154;45.506;-122.806;2022-11-20T05:06:09;0.93;;;0.70;;
50853;SDS011;44154;45.506;-122.806;2022-11-20T05:08:40;0.80;;;0.60;;
50853;SDS011;44154;45.506;-122.806;2022-11-20T05:11:07;1.27;;;0.90;;
50853;SDS011;44154;45.506;-122.806;2022-11-20T05:13:39;1.20;;;0.80;;
50853;SDS011;44154;45.506;-122.806;2022-11-20T05:16:06;1.35;;;1.00;;
50853;SDS011;44154;45.506;-122.806;2022-11-20T05:18:34;0.85;;;0.77;;
50853;SDS011;44154;45.506;-122.806;2022-11-20T05:21:01;1.17;;;0.80;;
50853;SDS011;44154;45.506;-122.806;2022-11-20T05:23:29;1.30;;;0.80;;
50853;SDS011;44154;45.506;-122.806;2022-11-20T05:25:56;1.27;;;0.85;;
50853;SDS011;44154;45.506;-122.806;2022-11-20T05:28:23;1.20;;;0.80;;
50853;SDS011;44154;45.506;-122.806;2022-11-20T05:30:50;1.20;;;0.85;;
50853;SDS011;44154;45.506;-122.806;2022-11-20T05:33:17;0.88;;;0.70;;
50853;SDS011;44154;45.506;-122.806;2022-11-20T05:35:44;1.30;;;0.95;;
50853;SDS011;44154;45.506;-122.806;2022-11-20T05:38:10;1.13;;;0.70;;
50853;SDS011;44154;45.506;-122.806;2022-11-20T05:40:37;1.02;;;0.90;;
50853;SDS011;44154;45.506;-122.806;2022-11-20T05:43:03;1.40;;;1.00;;
50853;SDS011;44154;45.506;-122.806;2022-11-20T05:45:29;1.15;;;0.90;;
50853;SDS011;44154;45.506;-122.806;2022-11-20T05:47:59;1.30;;;0.93;;
50853;SDS011;44154;45.506;-122.806;2022-11-20T05:50:26;1.63;;;1.10;;
50853;SDS011;44154;45.506;-122.806;2022-11-20T05:52:53;1.48;;;0.90;;
50853;SDS011;44154;45.506;-122.806;2022-11-20T05:55:19;1.30;;;0.80;;
50853;SDS011;44154;45.506;-122.806;2022-11-20T05:57:46;1.38;;;1.05;;
50853;SDS011;44154;45.506;-122.806;2022-11-20T06:00:12;1.10;;;0.90;;
50853;SDS011;44154;45.506;-122.806;2022-11-20T06:02:39;1.27;;;0.93;;
50853;SDS011;44154;45.506;-122.806;2022-11-20T06:05:05;1.40;;;1.00;;
50853;SDS011;44154;45.506;-122.806;2022-11-20T06:07:31;1.40;;;1.00;;
50853;SDS011;44154;45.506;-122.806;2022-11-20T06:09:58;1.45;;;1.00;;
50853;SDS011;44154;45.506;-122.806;2022-11-20T06:12:24;1.88;;;1.02;;
50853;SDS011;44154;45.506;-122.806;2022-11-20T06:14:50;1.23;;;0.88;;
50853;SDS011;44154;45.506;-122.806;2022-11-20T06:17:16;1.40;;;0.82;;
50853;SDS011;44154;45.506;-122.806;2022-11-20T06:19:43;1.30;;;0.80;;
50853;SDS011;44154;45.506;-122.806;2022-11-20T06:22:09;1.42;;;0.93;;
50853;SDS011;44154;45.506;-122.806;2022-11-20T06:24:35;1.50;;;1.02;;
50853;SDS011;44154;45.506;-122.806;2022-11-20T06:27:01;1.40;;;0.90;;
50853;SDS011;44154;45.506;-122.806;2022-11-20T06:29:27;1.17;;;0.75;;
50853;SDS011;44154;45.506;-122.806;2022-11-20T06:31:54;1.50;;;1.08;;
50853;SDS011;44154;45.506;-122.806;2022-11-20T06:34:22;0.98;;;0.77;;
50853;SDS011;44154;45.506;-122.806;2022-11-20T06:36:48;0.98;;;0.80;;
50853;SDS011;44154;45.506;-122.806;2022-11-20T06:39:14;0.90;;;0.70;;
50853;SDS011;44154;45.506;-122.806;2022-11-20T06:41:40;1.27;;;0.80;;
50853;SDS011;44154;45.506;-122.806;2022-11-20T06:44:07;1.42;;;0.80;;
50853;SDS011;44154;45.506;-122.806;2022-11-20T06:46:33;1.20;;;0.80;;
50853;SDS011;44154;45.506;-122.806;2022-11-20T06:48:59;1.23;;;0.80;;
50853;SDS011;44154;45.506;-122.806;2022-11-20T06:51:25;1.45;;;1.00;;
50853;SDS011;44154;45.506;-122.806;2022-11-20T06:53:51;1.42;;;1.00;;
50853;SDS011;44154;45.506;-122.806;2022-11-20T06:56:18;1.20;;;0.98;;
50853;SDS011;44154;45.506;-122.806;2022-11-20T06:58:45;2.10;;;1.05;;
50853;SDS011;44154;45.506;-122.806;2022-11-20T07:01:12;1.60;;;0.82;;
50853;SDS011;44154;45.506;-122.806;2022-11-20T07:03:39;1.40;;;0.90;;
50853;SDS011;44154;45.506;-122.806;2022-11-20T07:06:06;1.20;;;0.80;;
50853;SDS011;44154;45.506;-122.806;2022-11-20T07:08:33;1.10;;;0.73;;
50853;SDS011;44154;45.506;-122.806;2022-11-20T07:11:01;1.55;;;0.90;;
50853;SDS011;44154;45.506;-122.806;2022-11-20T07:13:29;1.13;;;0.90;;
50853;SDS011;44154;45.506;-122.806;2022-11-20T07:15:59;1.10;;;0.90;;
50853;SDS011;44154;45.506;-122.806;2022-11-20T07:18:27;1.10;;;0.73;;
50853;SDS011;44154;45.506;-122.806;2022-11-20T07:20:53;1.50;;;1.00;;
50853;SDS011;44154;45.506;-122.806;2022-11-20T07:23:20;1.42;;;1.00;;
50853;SDS011;44154;45.506;-122.806;2022-11-20T07:25:46;1.63;;;1.00;;
50853;SDS011;44154;45.506;-122.806;2022-11-20T07:28:12;1.10;;;0.70;;
50853;SDS011;44154;45.506;-122.806;2022-11-20T07:30:39;1.10;;;0.80;;
50853;SDS011;44154;45.506;-122.806;2022-11-20T07:33:05;1.50;;;1.00;;
50853;SDS011;44154;45.506;-122.806;2022-11-20T07:35:31;1.05;;;0.68;;
50853;SDS011;44154;45.506;-122.806;2022-11-20T07:37:58;1.08;;;0.70;;
50853;SDS011;44154;45.506;-122.806;2022-11-20T07:40:24;1.15;;;0.75;;
50853;SDS011;44154;45.506;-122.806;2022-11-20T07:42:51;1.33;;;1.00;;
50853;SDS011;44154;45.506;-122.806;2022-11-20T07:45:19;1.90;;;1.10;;
50853;SDS011;44154;45.506;-122.806;2022-11-20T07:47:46;1.33;;;1.00;;
50853;SDS011;44154;45.506;-122.806;2022-11-20T07:50:13;1.48;;;0.85;;
50853;SDS011;44154;45.506;-122.806;2022-11-20T07:52:40;1.40;;;0.90;;
50853;SDS011;44154;45.506;-122.806;2022-11-20T07:55:06;1.60;;;1.02;;
50853;SDS011;44154;45.506;-122.806;2022-11-20T07:57:34;1.27;;;0.90;;
50853;SDS011;44154;45.506;-122.806;2022-11-20T08:00:00;1.35;;;0.90;;
50853;SDS011;44154;45.506;-122.806;2022-11-20T08:02:26;1.40;;;0.80;;
50853;SDS011;44154;45.506;-122.806;2022-11-20T08:04:52;1.73;;;1.10;;
50853;SDS011;44154;45.506;-122.806;2022-11-20T08:07:19;1.55;;;1.00;;
50853;SDS011;44154;45.506;-122.806;2022-11-20T08:09:45;1.63;;;0.90;;
50853;SDS011;44154;45.506;-122.806;2022-11-20T08:12:20;2.05;;;1.15;;
50853;SDS011;44154;45.506;-122.806;2022-11-20T08:15:07;1.48;;;1.10;;
50853;SDS011;44154;45.506;-122.806;2022-11-20T08:17:33;1.92;;;1.15;;
50853;SDS011;44154;45.506;-122.806;2022-11-20T08:20:00;1.92;;;1.20;;
50853;SDS011;44154;45.506;-122.806;2022-11-20T08:22:26;2.13;;;1.25;;
50853;SDS011;44154;45.506;-122.806;2022-11-20T08:24:52;2.10;;;1.20;;
50853;SDS011;44154;45.506;-122.806;2022-11-20T08:27:18;1.40;;;0.80;;
50853;SDS011;44154;45.506;-122.806;2022-11-20T08:29:44;2.28;;;1.50;;
50853;SDS011;44154;45.506;-122.806;2022-11-20T08:32:11;1.90;;;1.30;;
50853;SDS011;44154;45.506;-122.806;2022-11-20T08:34:37;1.70;;;1.13;;
50853;SDS011;44154;45.506;-122.806;2022-11-20T08:37:03;2.15;;;1.50;;
50853;SDS011;44154;45.506;-122.806;2022-11-20T08:39:29;1.90;;;1.23;;
50853;SDS011;44154;45.506;-122.806;2022-11-20T08:41:55;2.00;;;1.30;;
50853;SDS011;44154;45.506;-122.806;2022-11-20T08:44:22;1.70;;;1.10;;
50853;SDS011;44154;45.506;-122.806;2022-11-20T08:46:48;1.60;;;0.90;;
50853;SDS011;44154;45.506;-122.806;2022-11-20T08:49:14;1.50;;;1.08;;
50853;SDS011;44154;45.506;-122.806;2022-11-20T08:51:41;2.20;;;1.48;;
50853;SDS011;44154;45.506;-122.806;2022-11-20T08:54:08;1.83;;;1.10;;
50853;SDS011;44154;45.506;-122.806;2022-11-20T08:56:34;1.58;;;1.10;;
50853;SDS011;44154;45.506;-122.806;2022-11-20T08:59:01;1.55;;;1.20;;
50853;SDS011;44154;45.506;-122.806;2022-11-20T09:01:27;2.10;;;1.48;;
50853;SDS011;44154;45.506;-122.806;2022-11-20T09:03:55;2.40;;;1.20;;
50853;SDS011;44154;45.506;-122.806;2022-11-20T09:06:22;2.05;;;1.40;;
50853;SDS011;44154;45.506;-122.806;2022-11-20T09:08:51;1.77;;;1.23;;
50853;SDS011;44154;45.506;-122.806;2022-11-20T09:11:18;2.25;;;1.40;;
50853;SDS011;44154;45.506;-122.806;2022-11-20T09:13:44;2.30;;;1.30;;
50853;SDS011;44154;45.506;-122.806;2022-11-20T09:16:11;1.85;;;1.25;;
50853;SDS011;44154;45.506;-122.806;2022-11-20T09:18:37;2.10;;;1.30;;
50853;SDS011;44154;45.506;-122.806;2022-11-20T09:21:05;2.35;;;1.50;;
50853;SDS011;44154;45.506;-122.806;2022-11-20T09:23:38;2.53;;;1.60;;
50853;SDS011;44154;45.506;-122.806;2022-11-20T09:26:12;2.63;;;1.70;;
50853;SDS011;44154;45.506;-122.806;2022-11-20T09:28:39;2.20;;;1.50;;
50853;SDS011;44154;45.506;-122.806;2022-11-20T09:31:09;2.05;;;1.35;;
50853;SDS011;44154;45.506;-122.806;2022-11-20T09:33:51;2.25;;;1.48;;
50853;SDS011;44154;45.506;-122.806;2022-11-20T09:36:17;1.95;;;1.42;;
50853;SDS011;44154;45.506;-122.806;2022-11-20T09:38:44;1.85;;;1.50;;
50853;SDS011;44154;45.506;-122.806;2022-11-20T09:44:16;2.30;;;1.50;;
50853;SDS011;44154;45.506;-122.806;2022-11-20T09:55:43;2.08;;;1.40;;
50853;SDS011;44154;45.506;-122.806;2022-11-20T09:58:13;2.10;;;1.42;;
50853;SDS011;44154;45.506;-122.806;2022-11-20T10:00:47;1.90;;;1.67;;
50853;SDS011;44154;45.506;-122.806;2022-11-20T10:03:17;2.42;;;1.60;;
50853;SDS011;44154;45.506;-122.806;2022-11-20T10:05:55;2.80;;;1.77;;
50853;SDS011;44154;45.506;-122.806;2022-11-20T10:08:24;2.60;;;1.80;;
50853;SDS011;44154;45.506;-122.806;2022-11-20T10:11:04;2.00;;;1.70;;
50853;SDS011;44154;45.506;-122.806;2022-11-20T10:16:41;2.20;;;1.63;;
50853;SDS011;44154;45.506;-122.806;2022-11-20T10:25:20;2.33;;;1.80;;
50853;SDS011;44154;45.506;-122.806;2022-11-20T10:30:43;3.10;;;1.65;;
50853;SDS011;44154;45.506;-122.806;2022-11-20T10:33:19;2.50;;;1.50;;
50853;SDS011;44154;45.506;-122.806;2022-11-20T10:35:50;2.17;;;1.63;;
50853;SDS011;44154;45.506;-122.806;2022-11-20T10:38:26;3.35;;;2.03;;
50853;SDS011;44154;45.506;-122.806;2022-11-20T10:41:01;2.63;;;1.85;;
50853;SDS011;44154;45.506;-122.806;2022-11-20T10:43:46;2.50;;;1.63;;
50853;SDS011;44154;45.506;-122.806;2022-11-20T10:46:19;2.75;;;1.70;;
50853;SDS011;44154;45.506;-122.806;2022-11-20T10:48:49;2.40;;;1.63;;
50853;SDS011;44154;45.506;-122.806;2022-11-20T10:56:48;2.53;;;1.75;;
50853;SDS011;44154;45.506;-122.806;2022-11-20T11:02:20;2.60;;;1.67;;
50853;SDS011;44154;45.506;-122.806;2022-11-20T11:04:51;2.40;;;1.77;;
50853;SDS011;44154;45.506;-122.806;2022-11-20T11:07:23;2.03;;;1.40;;
50853;SDS011;44154;45.506;-122.806;2022-11-20T11:09:58;2.60;;;1.65;;
50853;SDS011;44154;45.506;-122.806;2022-11-20T11:12:25;2.47;;;1.65;;
50853;SDS011;44154;45.506;-122.806;2022-11-20T11:14:54;3.30;;;2.20;;
50853;SDS011;44154;45.506;-122.806;2022-11-20T11:17:26;2.83;;;2.03;;
50853;SDS011;44154;45.506;-122.806;2022-11-20T11:22:47;3.50;;;1.90;;
50853;SDS011;44154;45.506;-122.806;2022-11-20T11:25:33;2.70;;;1.70;;
50853;SDS011;44154;45.506;-122.806;2022-11-20T11:28:01;2.55;;;1.80;;
50853;SDS011;44154;45.506;-122.806;2022-11-20T11:30:30;2.38;;;1.60;;
50853;SDS011;44154;45.506;-122.806;2022-11-20T11:33:11;2.58;;;1.67;;
50853;SDS011;44154;45.506;-122.806;2022-11-20T11:35:45;2.25;;;1.63;;
50853;SDS011;44154;45.506;-122.806;2022-11-20T11:38:15;2.20;;;1.70;;
50853;SDS011;44154;45.506;-122.806;2022-11-20T11:40:55;2.60;;;2.00;;
50853;SDS011;44154;45.506;-122.806;2022-11-20T11:43:23;2.55;;;1.63;;
50853;SDS011;44154;45.506;-122.806;2022-11-20T11:46:21;2.90;;;1.98;;
50853;SDS011;44154;45.506;-122.806;2022-11-20T11:49:08;2.75;;;2.10;;
50853;SDS011;44154;45.506;-122.806;2022-11-20T11:51:45;2.38;;;1.73;;
50853;SDS011;44154;45.506;-122.806;2022-11-20T11:54:37;3.33;;;1.80;;
50853;SDS011;44154;45.506;-122.806;2022-11-20T11:57:10;2.03;;;1.40;;
50853;SDS011;44154;45.506;-122.806;2022-11-20T12:02:20;3.00;;;1.90;;
50853;SDS011;44154;45.506;-122.806;2022-11-20T12:04:57;2.50;;;1.73;;
50853;SDS011;44154;45.506;-122.806;2022-11-20T12:07:57;2.42;;;1.73;;
50853;SDS011;44154;45.506;-122.806;2022-11-20T12:10:45;2.88;;;1.98;;
50853;SDS011;44154;45.506;-122.806;2022-11-20T12:16:00;2.45;;;1.80;;
50853;SDS011;44154;45.506;-122.806;2022-11-20T12:18:28;2.80;;;2.00;;
50853;SDS011;44154;45.506;-122.806;2022-11-20T12:21:42;2.35;;;1.83;;
50853;SDS011;44154;45.506;-122.806;2022-11-20T12:26:56;2.50;;;1.70;;
50853;SDS011;44154;45.506;-122.806;2022-11-20T12:29:48;2.63;;;1.73;;
50853;SDS011;44154;45.506;-122.806;2022-11-20T12:41:36;2.53;;;1.80;;
50853;SDS011;44154;45.506;-122.806;2022-11-20T12:53:04;2.08;;;1.60;;
50853;SDS011;44154;45.506;-122.806;2022-11-20T12:55:38;3.22;;;2.05;;
50853;SDS011;44154;45.506;-122.806;2022-11-20T13:07:02;1.92;;;1.48;;
50853;SDS011;44154;45.506;-122.806;2022-11-20T13:09:32;2.05;;;1.60;;
50853;SDS011;44154;45.506;-122.806;2022-11-20T13:12:08;2.60;;;1.40;;
50853;SDS011;44154;45.506;-122.806;2022-11-20T13:15:17;2.35;;;1.55;;
50853;SDS011;44154;45.506;-122.806;2022-11-20T13:18:02;2.40;;;1.70;;
50853;SDS011;44154;45.506;-122.806;2022-11-20T13:20:30;2.92;;;1.75;;
50853;SDS011;44154;45.506;-122.806;2022-11-20T13:22:59;2.35;;;1.55;;
50853;SDS011;44154;45.506;-122.806;2022-11-20T13:27:56;2.10;;;1.55;;
50853;SDS011;44154;45.506;-122.806;2022-11-20T13:30:25;2.05;;;1.50;;
50853;SDS011;44154;45.506;-122.806;2022-11-20T13:32:53;2.53;;;1.55;;
50853;SDS011;44154;45.506;-122.806;2022-11-20T13:35:31;3.10;;;1.83;;
50853;SDS011;44154;45.506;-122.806;2022-11-20T13:38:03;2.60;;;1.70;;
50853;SDS011;44154;45.506;-122.806;2022-11-20T13:40:32;2.63;;;1.92;;
50853;SDS011;44154;45.506;-122.806;2022-11-20T13:43:20;2.80;;;1.90;;
50853;SDS011;44154;45.506;-122.806;2022-11-20T13:46:03;2.30;;;1.40;;
50853;SDS011;44154;45.506;-122.806;2022-11-20T13:48:34;2.78;;;1.70;;
50853;SDS011;44154;45.506;-122.806;2022-11-20T13:51:12;2.35;;;1.55;;
50853;SDS011;44154;45.506;-122.806;2022-11-20T13:56:43;2.90;;;1.60;;
50853;SDS011;44154;45.506;-122.806;2022-11-20T14:02:10;2.10;;;1.42;;
50853;SDS011;44154;45.506;-122.806;2022-11-20T14:04:42;2.92;;;2.00;;
50853;SDS011;44154;45.506;-122.806;2022-11-20T14:07:11;2.42;;;1.80;;
50853;SDS011;44154;45.506;-122.806;2022-11-20T14:09:38;2.35;;;1.50;;
50853;SDS011;44154;45.506;-122.806;2022-11-20T14:12:13;2.63;;;1.75;;
50853;SDS011;44154;45.506;-122.806;2022-11-20T14:14:51;2.10;;;1.60;;
50853;SDS011;44154;45.506;-122.806;2022-11-20T14:17:20;2.30;;;1.55;;
50853;SDS011;44154;45.506;-122.806;2022-11-20T14:19:51;2.00;;;1.45;;
50853;SDS011;44154;45.506;-122.806;2022-11-20T14:22:19;2.28;;;1.60;;
50853;SDS011;44154;45.506;-122.806;2022-11-20T14:27:33;2.60;;;1.75;;
50853;SDS011;44154;45.506;-122.806;2022-11-20T14:30:02;2.30;;;1.65;;
50853;SDS011;44154;45.506;-122.806;2022-11-20T14:32:29;2.67;;;1.88;;
50853;SDS011;44154;45.506;-122.806;2022-11-20T14:34:59;2.38;;;1.70;;
50853;SDS011;44154;45.506;-122.806;2022-11-20T14:37:33;2.03;;;1.50;;
50853;SDS011;44154;45.506;-122.806;2022-11-20T14:40:05;2.28;;;1.50;;
50853;SDS011;44154;45.506;-122.806;2022-11-20T14:42:47;2.35;;;1.50;;
50853;SDS011;44154;45.506;-122.806;2022-11-20T14:45:14;2.55;;;1.40;;
50853;SDS011;44154;45.506;-122.806;2022-11-20T14:47:41;1.98;;;1.42;;
50853;SDS011;44154;45.506;-122.806;2022-11-20T14:50:19;2.88;;;1.50;;
50853;SDS011;44154;45.506;-122.806;2022-11-20T14:52:51;2.15;;;1.70;;
50853;SDS011;44154;45.506;-122.806;2022-11-20T14:55:31;2.20;;;1.60;;
50853;SDS011;44154;45.506;-122.806;2022-11-20T14:58:06;2.03;;;1.52;;
50853;SDS011;44154;45.506;-122.806;2022-11-20T15:01:03;2.72;;;2.05;;
50853;SDS011;44154;45.506;-122.806;2022-11-20T15:03:35;1.92;;;1.70;;
50853;SDS011;44154;45.506;-122.806;2022-11-20T15:06:06;2.40;;;1.50;;
50853;SDS011;44154;45.506;-122.806;2022-11-20T15:08:35;2.28;;;1.50;;
50853;SDS011;44154;45.506;-122.806;2022-11-20T15:11:01;2.20;;;1.50;;
50853;SDS011;44154;45.506;-122.806;2022-11-20T15:13:32;2.85;;;1.80;;
50853;SDS011;44154;45.506;-122.806;2022-11-20T15:16:01;1.35;;;1.08;;
50853;SDS011;44154;45.506;-122.806;2022-11-20T15:18:37;2.25;;;1.50;;
50853;SDS011;44154;45.506;-122.806;2022-11-20T15:21:13;2.22;;;1.67;;
50853;SDS011;44154;45.506;-122.806;2022-11-20T15:23:41;2.00;;;1.42;;
50853;SDS011;44154;45.506;-122.806;2022-11-20T15:26:08;2.40;;;1.50;;
50853;SDS011;44154;45.506;-122.806;2022-11-20T15:28:37;1.83;;;1.42;;
50853;SDS011;44154;45.506;-122.806;2022-11-20T15:31:06;2.47;;;1.60;;
50853;SDS011;44154;45.506;-122.806;2022-11-20T15:33:38;2.17;;;1.58;;
50853;SDS011;44154;45.506;-122.806;2022-11-20T15:36:05;2.10;;;1.50;;
50853;SDS011;44154;45.506;-122.806;2022-11-20T15:38:31;1.63;;;1.27;;
50853;SDS011;44154;45.506;-122.806;2022-11-20T15:40:57;2.10;;;1.40;;
50853;SDS011;44154;45.506;-122.806;2022-11-20T15:43:23;2.63;;;1.73;;
50853;SDS011;44154;45.506;-122.806;2022-11-20T15:45:53;2.85;;;1.60;;
50853;SDS011;44154;45.506;-122.806;2022-11-20T15:48:30;1.92;;;1.40;;
50853;SDS011;44154;45.506;-122.806;2022-11-20T15:53:37;2.17;;;1.33;;
50853;SDS011;44154;45.506;-122.806;2022-11-20T15:56:05;2.15;;;1.50;;
50853;SDS011;44154;45.506;-122.806;2022-11-20T15:58:32;1.90;;;1.17;;